Time;durP1;ratioP1;P1;durP2;ratioP2;P2;SDS_P1;SDS_P2;PMS_P1;PMS_P2;Temp;Humidity;BMP_temperature;BMP_pressure;BME280_temperature;BME280_humidity;BME280_pressure;Samples;Min_cycle;Max_cycle;Signal;HPM_P1;HPM_P2
2022/05/19 00:02:32;;;;;;;;;;;14.80;99.90;;;13.74;64.30;96152.47;10510642;28;1989;-74
2022/05/19 00:07:35;;;;;;;;;;;14.80;99.90;;;13.63;63.88;96145.56;10503154;28;1857;-74
2022/05/19 00:17:51;;;;;;;;;;;14.60;99.90;;;13.48;64.79;96150.00;10480383;28;2600;-74
2022/05/19 00:22:54;;;;;;;;;;;14.60;99.90;;;13.51;64.38;96144.03;10505566;28;1900;-74
2022/05/19 00:27:57;;;;;;;;;;;14.50;99.90;;;13.48;64.77;96139.19;10493255;28;1889;-75
2022/05/19 00:33:00;;;;;;;;;;;14.50;99.90;;;13.32;64.89;96135.00;10503133;28;1846;-74
2022/05/19 00:38:03;;;;;;;;;;;14.50;99.90;;;13.23;66.41;96134.81;10511811;28;2003;-73
2022/05/19 00:43:06;;;;;;;;;;;14.20;99.90;;;13.24;66.24;96127.53;10506480;28;1857;-74
2022/05/19 00:48:10;;;;;;;;;;;14.20;99.90;;;13.18;66.55;96124.03;10485417;28;2389;-75
2022/05/19 00:53:13;;;;;;;;;;;14.30;99.90;;;13.17;66.60;96122.41;10506422;28;2039;-75
2022/05/19 00:58:17;;;;;;;;;;;14.20;99.90;;;13.09;67.93;96127.59;10490831;28;3824;-74
2022/05/19 01:03:20;;;;;;;;;;;14.20;99.90;;;13.12;68.00;96129.75;10492440;28;1866;-74
2022/05/19 01:08:24;;;;;;;;;;;14.20;99.90;;;12.90;68.65;96125.53;10505759;28;2042;-73
2022/05/19 01:13:30;;;;;;;;;;;14.10;99.90;;;12.88;68.55;96124.22;10496146;28;1923;-74
2022/05/19 01:18:35;;;;;;;;;;;13.90;99.90;;;12.76;68.71;96129.94;10516717;28;1955;-74
2022/05/19 01:23:50;;;;;;;;;;;13.80;99.90;;;12.81;69.52;96124.53;10500951;28;1969;-74
2022/05/19 01:28:54;;;;;;;;;;;13.70;99.90;;;12.75;69.54;96125.66;10498365;28;2031;-74
2022/05/19 01:34:03;;;;;;;;;;;13.70;99.90;;;12.68;70.04;96120.56;10518958;28;1976;-74
2022/05/19 01:39:05;;;;;;;;;;;13.60;99.90;;;12.55;70.44;96121.16;10499956;28;1984;-74
2022/05/19 01:44:08;;;;;;;;;;;13.50;99.90;;;12.58;70.16;96115.19;10512913;28;1896;-74
2022/05/19 01:49:12;;;;;;;;;;;13.60;99.90;;;12.57;69.79;96112.78;10515262;28;1959;-74
2022/05/19 01:54:15;;;;;;;;;;;13.40;99.90;;;12.50;70.47;96120.38;10512499;28;1872;-75
2022/05/19 01:59:18;;;;;;;;;;;13.40;99.90;;;12.49;71.38;96116.06;10512020;28;1987;-74
2022/05/19 02:04:22;;;;;;;;;;;13.40;99.90;;;12.50;71.59;96118.50;10512593;28;1949;-74
2022/05/19 02:09:25;;;;;;;;;;;13.40;99.90;;;12.49;72.15;96122.28;10500526;28;1970;-74
2022/05/19 02:14:28;;;;;;;;;;;13.40;99.90;;;12.40;71.96;96129.31;10493688;28;1764;-73
2022/05/19 02:19:32;;;;;;;;;;;13.40;99.90;;;12.30;72.75;96126.66;10515283;28;1916;-74
2022/05/19 02:24:35;;;;;;;;;;;13.20;99.90;;;12.37;72.50;96130.69;10515959;28;1995;-75
2022/05/19 02:29:38;;;;;;;;;;;13.30;99.90;;;12.33;73.21;96134.19;10506917;28;2005;-74
2022/05/19 02:34:42;;;;;;;;;;;13.30;99.90;;;12.29;73.05;96133.94;10506936;28;1981;-74
2022/05/19 02:39:45;;;;;;;;;;;13.20;99.90;;;12.17;74.13;96130.75;10501456;28;2018;-73
2022/05/19 02:44:48;;;;;;;;;;;13.10;99.90;;;12.11;74.42;96129.16;10499056;28;2170;-73
2022/05/19 02:49:51;;;;;;;;;;;13.10;99.90;;;12.14;74.63;96128.59;10505070;28;2111;-73
2022/05/19 02:54:54;;;;;;;;;;;13.00;99.90;;;12.02;74.95;96123.50;10519958;28;1845;-73
2022/05/19 02:59:57;;;;;;;;;;;13.00;99.90;;;12.02;74.73;96128.09;10508440;28;1918;-73
2022/05/19 03:04:59;;;;;;;;;;;13.00;99.90;;;11.85;75.21;96118.44;10509782;28;1864;-73
2022/05/19 03:10:02;;;;;;;;;;;12.80;99.90;;;11.93;74.80;96114.38;10509750;28;1963;-74
2022/05/19 03:15:08;;;;;;;;;;;12.80;99.90;;;11.87;75.64;96116.28;10509110;28;2013;-74
2022/05/19 03:20:13;;;;;;;;;;;12.80;99.90;;;11.84;76.07;96122.22;10491869;28;1992;-73
2022/05/19 03:25:16;;;;;;;;;;;12.80;99.90;;;11.84;76.35;96111.47;10491089;28;1983;-74
2022/05/19 03:30:20;;;;;;;;;;;12.70;99.90;;;11.77;76.60;96123.53;10491128;28;1956;-73
2022/05/19 03:35:23;;;;;;;;;;;12.70;99.90;;;11.76;77.39;96125.44;10502970;28;2036;-73
2022/05/19 03:40:32;;;;;;;;;;;12.60;99.90;;;11.77;77.09;96121.69;10515046;28;2012;-74
2022/05/19 03:45:35;;;;;;;;;;;12.60;99.90;;;11.79;76.78;96122.19;10511769;28;1962;-73
2022/05/19 03:50:39;;;;;;;;;;;12.60;99.90;;;11.86;77.36;96125.44;10511259;28;1795;-73
2022/05/19 03:55:42;;;;;;;;;;;12.70;99.90;;;12.00;76.84;96124.88;10499095;28;1760;-74
2022/05/19 04:00:45;;;;;;;;;;;12.70;99.90;;;12.23;76.53;96128.84;10499495;28;2246;-74
2022/05/19 04:05:49;;;;;;;;;;;12.90;99.90;;;12.35;74.85;96116.69;10497164;28;1533;-74
2022/05/19 04:10:52;;;;;;;;;;;13.10;99.90;;;12.44;75.76;96128.50;10507393;28;1887;-74
2022/05/19 04:15:56;;;;;;;;;;;13.20;99.90;;;12.74;73.88;96137.53;10507197;28;1900;-74
2022/05/19 04:20:59;;;;;;;;;;;13.40;99.90;;;12.90;73.00;96139.03;10513875;28;1976;-74
2022/05/19 04:26:02;;;;;;;;;;;13.60;99.90;;;13.30;72.06;96131.78;10498535;28;1901;-73
2022/05/19 04:31:05;;;;;;;;;;;13.90;99.90;;;13.37;69.88;96132.28;10505477;28;1802;-74
2022/05/19 04:36:09;;;;;;;;;;;14.10;99.90;;;13.49;69.81;96130.03;10488376;28;1504;-74
2022/05/19 04:41:12;;;;;;;;;;;14.20;99.90;;;13.58;69.59;96140.19;10489051;28;1984;-75
2022/05/19 04:46:15;;;;;;;;;;;14.30;99.90;;;13.54;69.79;96131.84;10509349;28;1841;-76
2022/05/19 04:51:18;;;;;;;;;;;14.40;99.90;;;13.72;68.17;96144.66;10503105;28;1819;-74
2022/05/19 04:56:22;;;;;;;;;;;14.50;99.90;;;13.86;67.65;96149.38;10517769;28;1772;-77
2022/05/19 05:01:25;;;;;;;;;;;14.70;99.90;;;13.95;67.88;96145.81;10533167;28;2442;-74
2022/05/19 05:06:34;;;;;;;;;;;14.70;99.90;;;14.33;66.77;96152.16;10509454;28;1866;-74
2022/05/19 05:11:39;;;;;;;;;;;14.90;99.90;;;14.31;66.73;96142.69;10499731;28;1626;-74
2022/05/19 05:16:41;;;;;;;;;;;15.10;99.90;;;14.81;64.76;96146.69;10523464;28;2227;-75
2022/05/19 05:21:45;;;;;;;;;;;15.30;99.90;;;14.72;64.94;96150.38;10511079;28;2429;-74
2022/05/19 05:26:48;;;;;;;;;;;15.50;99.90;;;15.22;64.44;96159.69;10506976;28;1796;-75
2022/05/19 05:31:51;;;;;;;;;;;15.80;99.90;;;15.44;62.41;96156.34;10517659;28;2088;-73
2022/05/19 05:36:55;;;;;;;;;;;16.10;99.90;;;16.03;60.45;96160.31;10506951;28;1823;-73
2022/05/19 05:41:58;;;;;;;;;;;16.40;99.90;;;16.20;59.00;96160.50;10501228;28;1926;-73
2022/05/19 05:47:01;;;;;;;;;;;16.80;99.90;;;16.27;59.07;96162.81;10516710;28;1682;-74
2022/05/19 05:52:05;;;;;;;;;;;16.90;99.90;;;16.15;59.83;96171.44;10486452;28;1780;-73
2022/05/19 05:57:08;;;;;;;;;;;17.00;99.90;;;16.22;59.20;96168.34;10491304;28;1763;-75
2022/05/19 06:02:11;;;;;;;;;;;17.10;99.90;;;16.36;59.76;96171.09;10514231;28;1906;-75
2022/05/19 06:07:14;;;;;;;;;;;17.10;99.90;;;16.97;57.91;96172.56;10519067;28;1448;-72
2022/05/19 06:12:17;;;;;;;;;;;17.50;99.90;;;16.84;58.70;96165.25;10482565;28;1819;-72
2022/05/19 06:17:20;;;;;;;;;;;17.50;99.90;;;17.19;58.14;96169.94;10505370;28;2397;-71
2022/05/19 06:22:23;;;;;;;;;;;17.80;99.90;;;17.53;57.59;96165.88;10505809;28;1914;-71
2022/05/19 06:27:26;;;;;;;;;;;18.20;99.90;;;18.02;54.86;96170.41;10509848;28;1767;-74
2022/05/19 06:32:28;;;;;;;;;;;18.60;99.90;;;17.95;56.02;96182.84;10483732;28;1886;-75
2022/05/19 06:37:31;;;;;;;;;;;18.80;99.90;;;18.33;55.72;96175.84;10506900;28;1798;-75
2022/05/19 06:42:35;;;;;;;;;;;19.10;99.90;;;18.86;53.58;96169.50;10512426;28;1906;-76
2022/05/19 06:47:39;;;;;;;;;;;19.50;99.90;;;18.61;53.81;96173.72;10486384;28;1885;-77
2022/05/19 06:52:42;;;;;;;;;;;19.50;99.90;;;19.08;52.31;96181.41;10507002;28;1877;-77
2022/05/19 06:57:45;;;;;;;;;;;19.70;99.90;;;19.75;52.73;96170.09;10499035;28;2236;-75
2022/05/19 07:02:48;;;;;;;;;;;20.10;99.90;;;20.64;50.19;96170.34;10510282;28;2179;-76
2022/05/19 07:07:52;;;;;;;;;;;;;;;20.19;51.13;96174.34;10495928;28;2244;-75
2022/05/19 07:12:55;;;;;;;;;;;;;;;20.74;49.53;96169.97;10483463;28;2312;-77
2022/05/19 07:17:59;;;;;;;;;;;;;;;20.26;51.36;96171.09;10505250;28;1778;-77
2022/05/19 07:23:03;;;;;;;;;;;21.40;99.90;;;21.34;49.34;96171.59;10494320;28;1977;-78
2022/05/19 07:28:06;;;;;;;;;;;21.30;99.90;;;21.48;48.12;96166.66;10492153;28;1770;-77
2022/05/19 07:33:10;;;;;;;;;;;21.90;99.90;;;21.81;47.78;96169.41;10479496;28;1928;-78
2022/05/19 07:38:14;;;;;;;;;;;22.20;99.90;;;22.35;46.95;96172.13;10508073;28;1977;-78
2022/05/19 07:48:38;;;;;;;;;;;23.00;99.90;;;23.44;44.35;96173.28;10491110;28;1839;-78
2022/05/19 07:53:41;;;;;;;;;;;23.40;99.90;;;23.26;44.39;96171.16;10508642;28;1977;-75
2022/05/19 07:58:46;;;;;;;;;;;;;;;23.66;43.78;96176.69;10480150;28;1899;-71
2022/05/19 08:03:49;;;;;;;;;;;;;;;23.75;43.35;96165.56;10485133;28;1973;-73
2022/05/19 08:08:53;;;;;;;;;;;;;;;23.78;42.36;96175.84;10502553;28;1760;-73
2022/05/19 08:20:04;;;;;;;;;;;24.10;99.90;;;24.41;42.56;96170.53;10504712;28;1921;-73
2022/05/19 08:25:07;;;;;;;;;;;24.80;99.90;;;24.37;41.95;96175.16;10481758;28;1880;-75
2022/05/19 08:30:10;;;;;;;;;;;;;;;24.15;42.05;96169.03;10480672;28;1902;-76
2022/05/19 08:35:14;;;;;;;;;;;;;;;24.67;41.55;96162.56;10509539;28;1863;-76
2022/05/19 08:40:17;;;;;;;;;;;;;;;25.10;41.33;96166.38;10487120;28;1991;-75
2022/05/19 08:45:21;;;;;;;;;;;;;;;25.23;40.46;96167.06;10483597;28;1855;-76
2022/05/19 08:50:24;;;;;;;;;;;;;;;25.43;41.39;96165.13;10510619;28;1868;-74
2022/05/19 08:55:28;;;;;;;;;;;;;;;25.53;39.65;96165.38;10490057;28;1806;-73
2022/05/19 09:00:32;;;;;;;;;;;;;;;25.60;39.51;96159.22;10503664;28;1971;-74
2022/05/19 09:05:39;;;;;;;;;;;26.20;99.90;;;25.48;40.55;96162.91;10495028;28;1827;-75
2022/05/19 09:10:41;;;;;;;;;;;26.20;99.90;;;25.77;39.75;96158.84;10490475;28;1808;-76
2022/05/19 09:15:44;;;;;;;;;;;26.20;99.90;;;25.56;39.72;96152.84;10493967;28;1890;-76
2022/05/19 09:20:48;;;;;;;;;;;26.40;99.90;;;26.05;41.31;96146.78;10484789;28;1979;-76
2022/05/19 09:25:51;;;;;;;;;;;26.50;99.90;;;26.24;39.10;96149.50;10505219;28;1720;-75
2022/05/19 09:30:55;;;;;;;;;;;26.70;99.90;;;26.47;38.86;96146.81;10482514;28;1802;-75
2022/05/19 09:36:00;;;;;;;;;;;27.00;99.90;;;26.34;40.30;96151.66;10485289;28;1837;-76
2022/05/19 09:41:03;;;;;;;;;;;26.90;99.90;;;26.19;39.71;96141.53;10509463;28;1965;-75
2022/05/19 09:46:10;;;;;;;;;;;26.90;99.90;;;26.45;39.25;96142.81;10489095;28;1934;-74
2022/05/19 09:51:15;;;;;;;;;;;26.90;99.90;;;26.65;40.62;96141.56;10490066;28;2301;-77
2022/05/19 09:56:18;;;;;;;;;;;27.10;99.90;;;26.84;39.98;96144.25;10488365;28;1863;-73
2022/05/19 10:01:21;;;;;;;;;;;27.30;99.90;;;26.98;39.92;96138.19;10510558;28;1906;-76
2022/05/19 10:06:26;;;;;;;;;;;27.40;99.90;;;27.01;39.93;96128.34;10484162;28;1833;-74
2022/05/19 10:11:29;;;;;;;;;;;27.60;99.90;;;26.66;40.77;96132.94;10490236;28;1854;-75
2022/05/19 10:16:33;;;;;;;;;;;27.50;99.90;;;26.80;41.21;96129.63;10508235;28;1821;-75
2022/05/19 10:21:37;;;;;;;;;;;27.50;99.90;;;26.75;41.51;96127.16;10508834;28;1985;-74
2022/05/19 10:26:40;;;;;;;;;;;27.40;99.90;;;27.25;41.74;96124.41;10491948;28;1861;-73
2022/05/19 10:31:44;;;;;;;;;;;27.70;99.90;;;27.55;40.59;96116.09;10508569;28;1776;-74
2022/05/19 10:36:47;;;;;;;;;;;28.00;99.90;;;27.58;40.90;96120.91;10482674;28;2177;-74
2022/05/19 10:41:50;;;;;;;;;;;28.20;99.90;;;28.29;39.51;96121.72;10484922;28;1909;-74
2022/05/19 10:46:53;;;;;;;;;;;28.90;99.90;;;28.48;38.37;96109.69;10490672;28;1987;-74
2022/05/19 10:51:57;;;;;;;;;;;30.10;99.90;;;29.29;37.25;96097.66;10490761;28;2185;-74
2022/05/19 10:57:06;;;;;;;;;;;31.00;99.90;;;29.84;36.17;96103.09;10509236;28;1843;-75
2022/05/19 11:02:09;;;;;;;;;;;31.90;99.90;;;29.97;35.77;96103.53;10488174;28;2132;-74
2022/05/19 11:07:12;;;;;;;;;;;32.30;99.90;;;29.98;35.58;96100.34;10520388;28;1813;-74
2022/05/19 11:12:16;;;;;;;;;;;32.30;99.90;;;30.13;35.70;96093.69;10509443;28;1868;-75
2022/05/19 11:17:19;;;;;;;;;;;31.50;99.90;;;30.34;34.31;96083.81;10486269;28;1862;-74
2022/05/19 11:22:22;;;;;;;;;;;32.80;99.90;;;30.51;34.37;96091.34;10507788;28;1975;-74
2022/05/19 11:27:26;;;;;;;;;;;32.20;97.80;;;30.33;34.98;96090.53;10509974;28;1969;-74
2022/05/19 11:32:29;;;;;;;;;;;32.60;97.00;;;29.78;36.33;96082.50;10485087;28;1808;-74
2022/05/19 11:37:32;;;;;;;;;;;31.90;97.40;;;28.50;39.21;96072.19;10508523;28;1882;-75
2022/05/19 11:42:38;;;;;;;;;;;30.40;97.90;;;28.50;39.51;96069.44;10492863;28;1910;-74
2022/05/19 11:58:24;;;;;;;;;;;29.30;98.80;;;28.52;39.23;96069.84;10498650;28;1871;-76
2022/05/19 12:03:27;;;;;;;;;;;29.50;97.70;;;28.38;39.12;96053.13;10505420;28;1983;-75
2022/05/19 12:08:32;;;;;;;;;;;29.30;97.10;;;28.71;38.78;96060.50;10509748;28;1857;-74
2022/05/19 12:13:35;;;;;;;;;;;29.30;97.30;;;29.10;38.62;96048.13;10484392;28;1839;-75
2022/05/19 12:18:39;;;;;;;;;;;29.70;97.10;;;29.36;38.58;96039.56;10510758;28;1866;-74
2022/05/19 12:23:43;;;;;;;;;;;30.00;97.70;;;29.41;37.02;96049.47;10505145;28;1992;-75
2022/05/19 12:28:46;;;;;;;;;;;30.10;95.50;;;29.57;37.07;96039.66;10498209;28;1790;-75
2022/05/19 12:33:49;;;;;;;;;;;30.20;95.50;;;30.08;36.04;96035.03;10478447;28;1811;-76
2022/05/19 12:38:53;;;;;;;;;;;30.50;94.40;;;29.84;36.92;96031.84;10496326;28;1907;-75
2022/05/19 12:43:58;;;;;;;;;;;30.60;94.80;;;30.10;35.66;96035.47;10507956;28;1926;-75
2022/05/19 12:49:01;;;;;;;;;;;30.90;93.80;;;30.04;35.95;96028.72;10498859;28;2007;-75
2022/05/19 12:54:04;;;;;;;;;;;30.70;94.00;;;30.06;36.93;96031.88;10485041;28;1819;-75
2022/05/19 12:59:08;;;;;;;;;;;31.00;96.00;;;30.39;33.94;96039.06;10483492;28;1793;-75
2022/05/19 13:04:11;;;;;;;;;;;31.10;96.40;;;30.13;34.89;96031.91;10504868;28;1901;-75
2022/05/19 13:09:14;;;;;;;;;;;30.90;95.70;;;29.93;34.73;96033.44;10486803;28;1848;-75
2022/05/19 13:14:17;;;;;;;;;;;30.70;95.40;;;29.97;35.12;96028.69;10510341;28;1852;-74
2022/05/19 13:19:20;;;;;;;;;;;30.60;95.90;;;30.37;33.86;96022.03;10490080;28;1853;-75
2022/05/19 13:24:24;;;;;;;;;;;31.00;94.40;;;30.33;33.01;96010.91;10496384;28;2016;-75
2022/05/19 13:34:48;;;;;;;;;;;31.10;91.30;;;30.97;32.01;96020.38;10498856;28;2243;-75
2022/05/19 13:39:51;;;;;;;;;;;31.40;91.50;;;30.41;32.52;96015.28;10513444;28;1860;-74
2022/05/19 13:44:55;;;;;;;;;;;31.20;90.70;;;29.57;35.06;96006.41;10486766;28;1914;-75
2022/05/19 13:49:59;;;;;;;;;;;30.70;92.70;;;30.44;33.36;95994.28;10491978;28;1914;-75
2022/05/19 13:55:03;;;;;;;;;;;30.80;92.80;;;30.91;31.32;95997.78;10506216;28;1853;-76
2022/05/19 14:00:07;;;;;;;;;;;31.20;90.50;;;30.49;31.46;95996.66;10489646;28;2178;-74
2022/05/19 14:05:11;;;;;;;;;;;31.30;88.40;;;30.19;32.25;95985.19;10510873;28;1991;-74
2022/05/19 14:10:14;;;;;;;;;;;31.00;88.50;;;30.60;30.68;95986.34;10491612;28;1867;-74
2022/05/19 14:15:19;;;;;;;;;;;31.10;88.10;;;30.54;28.83;95987.94;10496360;28;2248;-75
2022/05/19 14:20:22;;;;;;;;;;;31.30;84.70;;;30.81;28.55;95982.75;10516018;28;1859;-75
2022/05/19 14:25:26;;;;;;;;;;;31.20;84.00;;;30.71;29.84;95982.78;10506493;28;2200;-74
2022/05/19 14:30:29;;;;;;;;;;;31.40;85.00;;;30.37;30.53;95986.75;10499554;28;1653;-74
2022/05/19 14:35:32;;;;;;;;;;;31.20;85.10;;;30.47;31.26;95974.06;10485356;28;1869;-74
2022/05/19 14:46:16;;;;;;;;;;;31.40;84.40;;;30.92;30.50;95971.63;10490338;28;1983;-74
2022/05/19 14:51:19;;;;;;;;;;;31.50;85.30;;;31.04;29.92;95962.06;10487614;28;2532;-75
2022/05/19 14:56:22;;;;;;;;;;;31.60;84.80;;;30.84;29.44;95958.97;10501132;28;1736;-75
2022/05/19 15:01:25;;;;;;;;;;;31.60;84.20;;;31.01;28.93;95949.78;10490553;28;2085;-74
2022/05/19 15:06:28;;;;;;;;;;;31.60;83.50;;;31.03;29.15;95955.72;10488809;28;1973;-74
2022/05/19 15:11:33;;;;;;;;;;;31.70;82.30;;;31.18;28.30;95951.72;10517659;28;1869;-75
2022/05/19 15:16:36;;;;;;;;;;;31.80;80.90;;;30.79;28.71;95948.28;10500212;28;1814;-74
2022/05/19 15:21:39;;;;;;;;;;;31.50;81.40;;;31.06;29.08;95943.84;10485610;28;1914;-75
2022/05/19 15:26:43;;;;;;;;;;;31.60;82.00;;;31.55;29.63;95939.22;10510411;28;2094;-75
2022/05/19 15:31:46;;;;;;;;;;;32.20;83.70;;;31.70;28.63;95954.63;10502652;28;1737;-75
2022/05/19 15:36:49;;;;;;;;;;;32.10;82.80;;;31.53;29.07;95955.53;10486858;28;1843;-74
2022/05/19 15:41:52;;;;;;;;;;;32.00;82.40;;;31.42;29.36;95949.22;10507309;28;1975;-75
2022/05/19 15:46:55;;;;;;;;;;;32.10;83.20;;;31.19;29.95;95947.75;10493280;28;1751;-76
2022/05/19 15:52:04;;;;;;;;;;;31.80;82.70;;;30.80;29.64;95938.78;10508979;28;1826;-74
2022/05/19 15:57:09;;;;;;;;;;;31.60;83.40;;;30.86;30.33;95934.41;10494460;28;1834;-75
2022/05/19 16:02:12;;;;;;;;;;;31.30;83.60;;;30.29;30.68;95935.28;10502074;28;1890;-75
2022/05/19 16:07:16;;;;;;;;;;;31.20;83.70;;;30.28;30.05;95932.88;10487216;28;1802;-75
2022/05/19 16:12:19;;;;;;;;;;;31.00;83.20;;;30.27;30.19;95937.63;10494756;28;1889;-74
2022/05/19 16:17:22;;;;;;;;;;;30.90;82.60;;;29.78;31.76;95943.94;10505014;28;1781;-74
2022/05/19 16:22:27;;;;;;;;;;;30.70;84.10;;;29.73;31.95;95952.66;10500217;28;1985;-74
2022/05/19 16:27:31;;;;;;;;;;;30.50;84.90;;;29.76;32.76;95947.09;10494963;28;1774;-75
2022/05/19 16:32:35;;;;;;;;;;;30.50;85.80;;;29.32;32.43;95950.13;10475652;28;1945;-74
2022/05/19 16:37:38;;;;;;;;;;;30.10;85.20;;;29.02;32.88;95937.41;10484682;28;1967;-75
2022/05/19 16:42:42;;;;;;;;;;;29.80;85.30;;;28.88;33.48;95942.81;10504905;28;1918;-74
2022/05/19 16:47:46;;;;;;;;;;;29.60;86.00;;;28.76;33.48;95957.00;10490693;28;1764;-75
2022/05/19 16:52:49;;;;;;;;;;;29.40;86.30;;;28.69;34.30;95952.22;10479103;28;1772;-74
2022/05/19 16:57:55;;;;;;;;;;;29.30;87.10;;;28.67;34.33;95948.25;10502735;28;1826;-72
2022/05/19 17:02:59;;;;;;;;;;;29.20;87.40;;;28.54;34.75;95951.34;10482113;28;1942;-73
2022/05/19 17:08:02;;;;;;;;;;;29.10;87.50;;;28.59;34.70;95946.63;10498594;28;1857;-74
2022/05/19 17:13:05;;;;;;;;;;;29.10;87.60;;;28.32;35.69;95946.84;10480709;28;1838;-74
2022/05/19 17:18:09;;;;;;;;;;;29.00;88.40;;;28.34;35.80;95946.47;10484967;28;1775;-73
2022/05/19 17:23:12;;;;;;;;;;;28.90;88.30;;;28.32;35.87;95943.28;10477796;28;1938;-74
2022/05/19 17:28:16;;;;;;;;;;;28.80;88.40;;;28.13;36.63;95955.38;10484776;28;1858;-73
2022/05/19 17:33:19;;;;;;;;;;;28.70;88.90;;;27.92;36.81;95948.47;10498958;28;1850;-73
2022/05/19 17:38:26;;;;;;;;;;;28.60;89.40;;;27.66;37.08;95956.88;10489869;28;1728;-74
2022/05/19 17:43:29;;;;;;;;;;;28.40;89.30;;;27.53;38.84;95963.84;10497357;28;1973;-73
2022/05/19 17:48:32;;;;;;;;;;;28.30;91.10;;;27.43;39.53;95963.38;10503097;28;1813;-74
2022/05/19 17:53:35;;;;;;;;;;;28.10;91.90;;;27.16;39.81;95967.38;10475681;28;1848;-74
2022/05/19 17:58:38;;;;;;;;;;;28.00;92.30;;;26.89;40.39;95967.41;10484441;28;1780;-73
2022/05/19 18:03:41;;;;;;;;;;;27.70;92.40;;;26.79;41.11;95970.84;10491993;28;1992;-72
2022/05/19 18:08:45;;;;;;;;;;;27.60;93.00;;;26.50;41.90;95982.63;10509016;28;1798;-74
2022/05/19 18:13:49;;;;;;;;;;;27.40;93.70;;;26.24;42.46;95986.94;10503865;28;1717;-74
2022/05/19 18:18:52;;;;;;;;;;;27.10;94.40;;;25.91;43.05;95993.06;10516922;28;1785;-73
2022/05/19 18:23:55;;;;;;;;;;;26.90;94.10;;;25.84;40.14;95996.50;10504753;28;1950;-74
2022/05/19 18:28:57;;;;;;;;;;;26.60;91.40;;;25.75;40.84;96004.19;10510795;28;2022;-74
2022/05/19 18:34:00;;;;;;;;;;;26.60;91.80;;;25.65;40.31;95996.53;10510405;28;2242;-74
2022/05/19 18:39:03;;;;;;;;;;;26.50;91.50;;;25.51;40.36;96021.81;10510202;28;2029;-75
2022/05/19 18:49:32;;;;;;;;;;;26.20;92.30;;;25.22;41.43;96045.22;10510647;28;1854;-75
2022/05/19 18:54:35;;;;;;;;;;;26.00;92.50;;;25.12;41.89;96056.78;10487560;28;1821;-75
2022/05/19 18:59:44;;;;;;;;;;;25.80;92.60;;;24.86;42.92;96064.81;10486594;28;1811;-71
2022/05/19 19:04:48;;;;;;;;;;;25.70;93.40;;;24.62;43.70;96069.41;10486715;28;1968;-75
2022/05/19 19:09:51;;;;;;;;;;;25.50;94.00;;;24.51;43.40;96068.34;10505896;28;1801;-75
2022/05/19 19:14:55;;;;;;;;;;;25.30;93.80;;;24.46;42.98;96079.59;10503986;28;1865;-74
2022/05/19 19:20:05;;;;;;;;;;;25.20;93.10;;;24.27;42.76;96083.81;10519677;28;1772;-74
2022/05/19 19:25:11;;;;;;;;;;;25.10;92.70;;;24.11;42.18;96091.28;10496274;28;1982;-74
2022/05/19 19:30:14;;;;;;;;;;;25.00;92.10;;;23.96;42.00;96076.34;10503345;28;1839;-74
2022/05/19 19:35:17;;;;;;;;;;;24.80;91.50;;;23.73;42.07;96078.09;10487208;28;2173;-75
2022/05/19 19:40:21;;;;;;;;;;;24.60;91.10;;;23.55;42.48;96072.09;10485367;28;1784;-74
2022/05/19 19:45:24;;;;;;;;;;;24.50;91.50;;;23.39;42.48;96082.19;10504524;28;1914;-74
2022/05/19 19:55:49;;;;;;;;;;;24.10;92.50;;;22.88;43.35;96106.53;10487846;28;1919;-74
2022/05/19 20:00:53;;;;;;;;;;;23.80;92.90;;;22.91;42.64;96111.34;10501978;28;1799;-76
2022/05/19 20:05:58;;;;;;;;;;;23.70;93.40;;;22.74;43.37;96117.81;10513309;28;1906;-76
2022/05/19 20:11:02;;;;;;;;;;;23.60;92.90;;;22.70;43.25;96138.03;10500128;28;1787;-72
2022/05/19 20:16:11;;;;;;;;;;;23.60;93.30;;;22.65;42.87;96144.56;10490840;28;1864;-72
2022/05/19 20:21:15;;;;;;;;;;;23.40;93.00;;;22.59;43.01;96154.94;10490360;28;2006;-74
2022/05/19 20:26:19;;;;;;;;;;;23.40;93.00;;;22.51;43.51;96158.56;10503119;28;1973;-74
2022/05/19 20:31:22;;;;;;;;;;;23.30;93.70;;;22.47;43.43;96162.34;10489829;28;1846;-74
2022/05/19 20:36:26;;;;;;;;;;;23.20;93.70;;;22.36;44.29;96167.44;10506097;28;1875;-74
2022/05/19 20:41:28;;;;;;;;;;;23.20;94.30;;;22.33;44.89;96154.44;10476522;28;1828;-74
2022/05/19 20:46:32;;;;;;;;;;;23.20;95.70;;;22.31;44.75;96164.94;10498460;28;1983;-75
2022/05/19 20:51:35;;;;;;;;;;;23.00;96.30;;;22.23;45.47;96174.84;10484894;28;1871;-73
2022/05/19 20:56:38;;;;;;;;;;;23.00;97.30;;;22.19;45.62;96190.34;10486296;28;1849;-74
2022/05/19 21:01:41;;;;;;;;;;;23.00;98.00;;;22.10;46.07;96190.44;10505828;28;1825;-73
2022/05/19 21:06:44;;;;;;;;;;;22.90;99.90;;;22.04;46.04;96191.75;10490918;28;1914;-73
2022/05/19 21:11:47;;;;;;;;;;;22.90;99.90;;;21.99;46.08;96194.69;10486899;28;1939;-74
2022/05/19 21:16:53;;;;;;;;;;;22.80;99.90;;;21.98;46.35;96201.31;10509346;28;1839;-74
2022/05/19 21:21:56;;;;;;;;;;;22.80;99.90;;;21.89;46.60;96203.34;10505823;28;1823;-74
2022/05/19 21:26:59;;;;;;;;;;;22.60;99.90;;;21.78;46.83;96191.19;10478718;28;1917;-75
2022/05/19 21:32:02;;;;;;;;;;;22.60;99.90;;;21.77;46.88;96195.06;10502090;28;1899;-75
2022/05/19 21:37:10;;;;;;;;;;;22.60;99.90;;;21.81;46.33;96193.25;10491520;28;1851;-74
2022/05/19 21:42:13;;;;;;;;;;;22.50;99.90;;;21.79;46.33;96220.16;10506585;28;1736;-74
2022/05/19 21:47:16;;;;;;;;;;;22.70;99.90;;;21.69;46.24;96223.28;10492420;28;1914;-74
2022/05/19 21:57:41;;;;;;;;;;;22.50;99.90;;;21.74;47.54;96299.69;10509372;28;1838;-74
2022/05/19 22:02:45;;;;;;;;;;;22.40;99.90;;;21.64;47.97;96295.44;10506633;28;1915;-74
2022/05/19 22:07:48;;;;;;;;;;;22.40;99.90;;;21.54;48.80;96321.22;10492784;28;1926;-75
2022/05/19 22:12:51;;;;;;;;;;;22.20;99.90;;;21.56;48.78;96327.16;10514726;28;1841;-74
2022/05/19 22:17:54;;;;;;;;;;;22.30;99.90;;;21.14;57.08;96341.81;10509212;28;1808;-73
2022/05/19 22:22:59;;;;;;;;;;;22.20;99.90;;;20.33;61.05;96346.13;10487258;28;1808;-75
2022/05/19 22:28:03;;;;;;;;;;;;;;;20.06;63.77;96352.72;10509321;28;2204;-74
2022/05/19 22:33:07;;;;;;;;;;;;;;;20.13;63.33;96357.69;10486166;28;1880;-75
2022/05/19 22:38:11;;;;;;;;;;;;;;;20.09;65.03;96378.56;10503389;28;2177;-74
2022/05/19 22:43:15;;;;;;;;;;;;;;;19.86;67.65;96405.97;10499257;28;1737;-74
2022/05/19 22:48:19;;;;;;;;;;;;;;;19.52;70.74;96392.19;10491854;28;1989;-74
2022/05/19 22:53:23;;;;;;;;;;;;;;;18.69;85.53;96392.75;10511776;28;1868;-74
2022/05/19 22:58:27;;;;;;;;;;;;;;;18.03;89.31;96388.84;10490289;28;1939;-76
2022/05/19 23:03:31;;;;;;;;;;;19.00;99.90;;;17.92;89.51;96379.28;10482700;28;1833;-73
2022/05/19 23:08:35;;;;;;;;;;;;;;;17.87;89.29;96376.66;10489235;28;1991;-74
2022/05/19 23:13:38;;;;;;;;;;;18.60;99.90;;;17.80;90.08;96367.00;10487663;28;1782;-73
2022/05/19 23:18:41;;;;;;;;;;;18.50;99.90;;;17.86;87.35;96364.19;10500447;28;1929;-75
2022/05/19 23:23:45;;;;;;;;;;;;;;;17.82;89.20;96378.41;10487703;28;1918;-74
2022/05/19 23:28:49;;;;;;;;;;;;;;;17.89;86.98;96363.59;10493738;28;1508;-73
2022/05/19 23:33:54;;;;;;;;;;;;;;;17.85;90.02;96362.56;10535151;28;1800;-75
2022/05/19 23:38:57;;;;;;;;;;;;;;;17.94;89.74;96338.97;10493594;28;2198;-74
2022/05/19 23:44:01;;;;;;;;;;;;;;;18.01;89.86;96328.50;10487051;28;1995;-75
2022/05/19 23:49:04;;;;;;;;;;;;;;;18.01;90.09;96315.69;10500685;28;2168;-75
2022/05/19 23:54:08;;;;;;;;;;;;;;;17.98;92.14;96324.47;10493998;28;1879;-75
2022/05/19 23:59:13;;;;;;;;;;;;;;;18.04;91.29;96314.28;10482271;28;1794;-74
